Bayfield, CO

6:46 PM MDT on April 23, 2017 (GMT -0600)
Bayfield Weather | | Change Station
Active Advisory: Fire Weather Warning

Elev 7047 ft 37.25 °N, 107.60 °W | Updated 5 seconds ago

Partly Cloudy
Partly Cloudy
66.4 °F
Feels Like 66.4 °F
N
0.0
Wind Variable Wind from WNW
Gusts 0.0 mph

Today
High -- | Low -- °F
--% Chance of Precip.
Yesterday
High -- | Low -- °F
Precip. -- in
Pressure 29.79 in
Visibility 10.0 miles
Clouds Clear
Dew Point 33 °F
Humidity 29%
Rainfall 0.00 in
Snow Depth Not available.
6:24 AM 7:52 PM
Waning Crescent, 8% visible
METAR KDRO 232353Z AUTO VRB03KT 10SM CLR 20/M06 A2990 RMK AO2 SLP088 T02001061 10211 20150 56034
Pressure 29.79 in
Visibility 10.0 miles
Clouds Clear
Dew Point 33 °F
Humidity 29%
Rainfall 0.00 in
Snow Depth Not available.
6:24 AM 7:52 PM
Waning Crescent, 8% visible
METAR KDRO 232353Z AUTO VRB03KT 10SM CLR 20/M06 A2990 RMK AO2 SLP088 T02001061 10211 20150 56034

Get Your Daily Forecast Email!

Thanks for signing up!

Be on the lookout for a verification email in your inbox.

You'll start receiving severe weather alerts in your inbox..

×

10-Day Weather Forecast

Almanac

Astronomy

Apr. 23, 2017 Rise Set
Actual Time
Civil Twilight
Nautical Twilight
Astronomical Twilight
Moon
Length of Visible Light
Length of Day
Tomorrow will be .
, % of the Moon is Illuminated

Today's Extremes

State Highs State Lows

Community

WunderPhotos

WunderBlog® & News

Nearby

Air Quality

  Air Quality AQ Index Pollutant
Not available.

Snow Depth

Station Depth Elevation

Earthquake Activity

City Distance Mag. Time & Date
Minimum magnitude displayed is 2.5.

Coastal Water Temperatures

Place Temperature

Stations

Nearby Weather Stations

Station Location Temp. Windchill Dew Point Humidity Wind Precip. Elev Updated Type
                   

Watches & Warnings

Fire Weather Warning
Issued: 3:49 PM MDT Apr. 23, 2017 – National Weather Service

... Red flag warning remains in effect until 8 PM MDT this evening
for gusty winds and low relative humidity for fire weather zone
292...

* affected area... in Colorado, fire weather zone 203 lower
Colorado River, fire weather zone 207 southwest Colorado lower
forecast area, fire weather zone 290 Paradox Valley forecast
area and fire weather zone 292 North Fork forecast area.

* Winds... southwest 10 to 20 mph with gusts up to 40 mph.

* Relative humidity... 10 to 15 percent.

* Impacts... critical fire weather conditions will develop this
afternoon and evening. Existing or new fires will be difficult
to control.

Precautionary/preparedness actions...

A red flag warning means that critical fire weather conditions
are either occurring now, or will shortly. A combination of
strong winds, low relative humidity, and warm temperatures can
contribute to extreme fire behavior.